sensor_id;sensor_type;location;lat;lon;timestamp;P1;durP1;ratioP1;P2;durP2;ratioP2
68256;SDS011;55069;51.568;4.656;2023-04-01T00:02:07;11.60;;;3.60;;
68256;SDS011;55069;51.568;4.656;2023-04-01T00:04:33;10.77;;;3.50;;
68256;SDS011;55069;51.568;4.656;2023-04-01T00:06:58;7.68;;;3.55;;
68256;SDS011;55069;51.568;4.656;2023-04-01T00:09:25;8.18;;;3.33;;
68256;SDS011;55069;51.568;4.656;2023-04-01T00:11:51;10.70;;;3.50;;
68256;SDS011;55069;51.568;4.656;2023-04-01T00:14:16;10.33;;;3.87;;
68256;SDS011;55069;51.568;4.656;2023-04-01T00:16:42;15.85;;;4.25;;
68256;SDS011;55069;51.568;4.656;2023-04-01T00:19:08;11.27;;;3.50;;
68256;SDS011;55069;51.568;4.656;2023-04-01T00:21:34;11.43;;;3.88;;
68256;SDS011;55069;51.568;4.656;2023-04-01T00:23:59;12.00;;;3.80;;
68256;SDS011;55069;51.568;4.656;2023-04-01T00:26:25;8.55;;;3.63;;
68256;SDS011;55069;51.568;4.656;2023-04-01T00:28:51;11.07;;;3.97;;
68256;SDS011;55069;51.568;4.656;2023-04-01T00:31:17;19.27;;;3.47;;
68256;SDS011;55069;51.568;4.656;2023-04-01T00:33:43;11.02;;;3.72;;
68256;SDS011;55069;51.568;4.656;2023-04-01T00:36:15;12.27;;;4.23;;
68256;SDS011;55069;51.568;4.656;2023-04-01T00:38:43;10.00;;;3.83;;
68256;SDS011;55069;51.568;4.656;2023-04-01T00:41:09;15.18;;;4.85;;
68256;SDS011;55069;51.568;4.656;2023-04-01T00:43:41;14.20;;;4.13;;
68256;SDS011;55069;51.568;4.656;2023-04-01T00:46:08;8.30;;;3.05;;
68256;SDS011;55069;51.568;4.656;2023-04-01T00:48:34;9.43;;;3.38;;
68256;SDS011;55069;51.568;4.656;2023-04-01T00:51:07;8.47;;;3.23;;
68256;SDS011;55069;51.568;4.656;2023-04-01T00:53:41;7.22;;;2.40;;
68256;SDS011;55069;51.568;4.656;2023-04-01T00:56:13;8.18;;;2.83;;
68256;SDS011;55069;51.568;4.656;2023-04-01T00:58:46;9.80;;;2.83;;
68256;SDS011;55069;51.568;4.656;2023-04-01T01:01:16;6.15;;;2.58;;
68256;SDS011;55069;51.568;4.656;2023-04-01T01:03:41;7.80;;;3.03;;
68256;SDS011;55069;51.568;4.656;2023-04-01T01:06:08;7.85;;;3.05;;
68256;SDS011;55069;51.568;4.656;2023-04-01T01:11:15;11.82;;;3.42;;
68256;SDS011;55069;51.568;4.656;2023-04-01T01:16:41;19.83;;;5.55;;
68256;SDS011;55069;51.568;4.656;2023-04-01T01:25:00;16.45;;;4.50;;
68256;SDS011;55069;51.568;4.656;2023-04-01T01:27:49;26.63;;;5.50;;
68256;SDS011;55069;51.568;4.656;2023-04-01T01:35:40;19.33;;;3.60;;
68256;SDS011;55069;51.568;4.656;2023-04-01T01:38:21;19.90;;;4.18;;
68256;SDS011;55069;51.568;4.656;2023-04-01T01:40:59;17.98;;;4.43;;
68256;SDS011;55069;51.568;4.656;2023-04-01T01:43:38;12.43;;;3.25;;
68256;SDS011;55069;51.568;4.656;2023-04-01T01:46:14;11.30;;;3.03;;
68256;SDS011;55069;51.568;4.656;2023-04-01T01:48:44;11.47;;;3.47;;
68256;SDS011;55069;51.568;4.656;2023-04-01T01:51:11;7.00;;;2.67;;
68256;SDS011;55069;51.568;4.656;2023-04-01T01:53:37;7.97;;;2.45;;
68256;SDS011;55069;51.568;4.656;2023-04-01T01:56:03;8.93;;;2.50;;
68256;SDS011;55069;51.568;4.656;2023-04-01T01:58:35;10.70;;;2.70;;
68256;SDS011;55069;51.568;4.656;2023-04-01T02:01:12;8.05;;;3.28;;
68256;SDS011;55069;51.568;4.656;2023-04-01T02:03:50;8.30;;;3.07;;
68256;SDS011;55069;51.568;4.656;2023-04-01T02:06:19;6.68;;;3.05;;
68256;SDS011;55069;51.568;4.656;2023-04-01T02:09:20;10.52;;;3.95;;
68256;SDS011;55069;51.568;4.656;2023-04-01T02:19:57;13.23;;;5.65;;
68256;SDS011;55069;51.568;4.656;2023-04-01T02:22:28;12.43;;;5.50;;
68256;SDS011;55069;51.568;4.656;2023-04-01T02:25:01;13.18;;;6.32;;
68256;SDS011;55069;51.568;4.656;2023-04-01T02:27:31;14.00;;;7.55;;
68256;SDS011;55069;51.568;4.656;2023-04-01T02:29:57;13.33;;;7.03;;
68256;SDS011;55069;51.568;4.656;2023-04-01T02:32:23;13.75;;;7.68;;
68256;SDS011;55069;51.568;4.656;2023-04-01T02:34:50;19.40;;;9.02;;
68256;SDS011;55069;51.568;4.656;2023-04-01T02:37:17;13.65;;;6.82;;
68256;SDS011;55069;51.568;4.656;2023-04-01T02:39:43;14.32;;;7.15;;
68256;SDS011;55069;51.568;4.656;2023-04-01T02:42:08;12.80;;;6.50;;
68256;SDS011;55069;51.568;4.656;2023-04-01T02:44:34;15.18;;;7.18;;
68256;SDS011;55069;51.568;4.656;2023-04-01T02:47:00;13.23;;;7.20;;
68256;SDS011;55069;51.568;4.656;2023-04-01T02:49:26;19.50;;;9.07;;
68256;SDS011;55069;51.568;4.656;2023-04-01T02:51:52;16.27;;;7.93;;
68256;SDS011;55069;51.568;4.656;2023-04-01T02:54:18;17.25;;;8.82;;
68256;SDS011;55069;51.568;4.656;2023-04-01T02:56:44;18.27;;;8.17;;
68256;SDS011;55069;51.568;4.656;2023-04-01T02:59:10;15.07;;;7.50;;
68256;SDS011;55069;51.568;4.656;2023-04-01T03:01:37;22.35;;;7.57;;
68256;SDS011;55069;51.568;4.656;2023-04-01T03:04:03;22.10;;;9.77;;
68256;SDS011;55069;51.568;4.656;2023-04-01T03:06:29;23.70;;;10.10;;
68256;SDS011;55069;51.568;4.656;2023-04-01T03:08:55;23.97;;;11.07;;
68256;SDS011;55069;51.568;4.656;2023-04-01T03:11:21;30.20;;;11.65;;
68256;SDS011;55069;51.568;4.656;2023-04-01T03:13:46;25.60;;;11.70;;
68256;SDS011;55069;51.568;4.656;2023-04-01T03:16:12;31.35;;;12.48;;
68256;SDS011;55069;51.568;4.656;2023-04-01T03:18:38;21.75;;;9.20;;
68256;SDS011;55069;51.568;4.656;2023-04-01T03:23:43;18.45;;;7.22;;
68256;SDS011;55069;51.568;4.656;2023-04-01T03:26:09;26.20;;;8.68;;
68256;SDS011;55069;51.568;4.656;2023-04-01T03:28:35;15.63;;;7.20;;
68256;SDS011;55069;51.568;4.656;2023-04-01T03:31:01;22.92;;;8.55;;
68256;SDS011;55069;51.568;4.656;2023-04-01T03:33:29;18.27;;;7.10;;
68256;SDS011;55069;51.568;4.656;2023-04-01T03:35:56;17.27;;;7.50;;
68256;SDS011;55069;51.568;4.656;2023-04-01T03:38:21;14.35;;;7.45;;
68256;SDS011;55069;51.568;4.656;2023-04-01T03:40:47;19.37;;;8.20;;
68256;SDS011;55069;51.568;4.656;2023-04-01T03:43:13;20.67;;;8.85;;
68256;SDS011;55069;51.568;4.656;2023-04-01T03:45:45;20.67;;;7.10;;
68256;SDS011;55069;51.568;4.656;2023-04-01T03:48:14;11.15;;;6.18;;
68256;SDS011;55069;51.568;4.656;2023-04-01T03:50:40;19.65;;;8.63;;
68256;SDS011;55069;51.568;4.656;2023-04-01T03:53:07;16.20;;;7.30;;
68256;SDS011;55069;51.568;4.656;2023-04-01T03:55:33;13.65;;;5.70;;
68256;SDS011;55069;51.568;4.656;2023-04-01T03:58:01;16.92;;;7.35;;
68256;SDS011;55069;51.568;4.656;2023-04-01T04:00:28;16.42;;;6.72;;
68256;SDS011;55069;51.568;4.656;2023-04-01T04:02:54;11.02;;;5.45;;
68256;SDS011;55069;51.568;4.656;2023-04-01T04:05:29;13.83;;;6.77;;
68256;SDS011;55069;51.568;4.656;2023-04-01T04:07:54;12.65;;;5.70;;
68256;SDS011;55069;51.568;4.656;2023-04-01T04:10:21;16.05;;;6.22;;
68256;SDS011;55069;51.568;4.656;2023-04-01T04:12:48;12.67;;;5.87;;
68256;SDS011;55069;51.568;4.656;2023-04-01T04:15:15;7.25;;;4.43;;
68256;SDS011;55069;51.568;4.656;2023-04-01T04:17:41;13.73;;;5.43;;
68256;SDS011;55069;51.568;4.656;2023-04-01T04:20:07;10.57;;;4.95;;
68256;SDS011;55069;51.568;4.656;2023-04-01T04:22:34;9.93;;;5.27;;
68256;SDS011;55069;51.568;4.656;2023-04-01T04:25:02;11.25;;;5.45;;
68256;SDS011;55069;51.568;4.656;2023-04-01T04:27:28;6.63;;;3.80;;
68256;SDS011;55069;51.568;4.656;2023-04-01T04:30:14;8.60;;;4.53;;
68256;SDS011;55069;51.568;4.656;2023-04-01T04:32:39;13.07;;;4.70;;
68256;SDS011;55069;51.568;4.656;2023-04-01T04:35:06;13.90;;;6.47;;
68256;SDS011;55069;51.568;4.656;2023-04-01T04:37:33;13.63;;;6.13;;
68256;SDS011;55069;51.568;4.656;2023-04-01T04:39:58;12.87;;;6.17;;
68256;SDS011;55069;51.568;4.656;2023-04-01T04:42:24;15.75;;;6.82;;
68256;SDS011;55069;51.568;4.656;2023-04-01T04:44:54;15.18;;;6.25;;
68256;SDS011;55069;51.568;4.656;2023-04-01T04:47:20;13.00;;;6.47;;
68256;SDS011;55069;51.568;4.656;2023-04-01T04:49:46;11.20;;;5.93;;
68256;SDS011;55069;51.568;4.656;2023-04-01T04:52:11;16.52;;;6.50;;
68256;SDS011;55069;51.568;4.656;2023-04-01T04:54:37;12.23;;;6.33;;
68256;SDS011;55069;51.568;4.656;2023-04-01T04:57:04;15.48;;;7.45;;
68256;SDS011;55069;51.568;4.656;2023-04-01T04:59:35;14.10;;;6.50;;
68256;SDS011;55069;51.568;4.656;2023-04-01T05:02:11;15.80;;;6.88;;
68256;SDS011;55069;51.568;4.656;2023-04-01T05:04:37;14.87;;;5.83;;
68256;SDS011;55069;51.568;4.656;2023-04-01T05:07:05;15.80;;;7.07;;
68256;SDS011;55069;51.568;4.656;2023-04-01T05:09:32;12.75;;;6.40;;
68256;SDS011;55069;51.568;4.656;2023-04-01T05:11:59;10.90;;;6.03;;
68256;SDS011;55069;51.568;4.656;2023-04-01T05:14:27;14.80;;;6.15;;
68256;SDS011;55069;51.568;4.656;2023-04-01T05:17:08;17.90;;;6.88;;
68256;SDS011;55069;51.568;4.656;2023-04-01T05:19:35;11.45;;;6.03;;
68256;SDS011;55069;51.568;4.656;2023-04-01T05:22:00;14.50;;;6.67;;
68256;SDS011;55069;51.568;4.656;2023-04-01T05:24:27;15.15;;;7.65;;
68256;SDS011;55069;51.568;4.656;2023-04-01T05:26:53;14.43;;;7.20;;
68256;SDS011;55069;51.568;4.656;2023-04-01T05:29:19;16.80;;;8.48;;
68256;SDS011;55069;51.568;4.656;2023-04-01T05:31:48;14.85;;;7.97;;
68256;SDS011;55069;51.568;4.656;2023-04-01T05:34:14;16.53;;;7.93;;
68256;SDS011;55069;51.568;4.656;2023-04-01T05:36:39;17.67;;;8.32;;
68256;SDS011;55069;51.568;4.656;2023-04-01T05:39:06;18.17;;;8.23;;
68256;SDS011;55069;51.568;4.656;2023-04-01T05:41:34;14.80;;;8.00;;
68256;SDS011;55069;51.568;4.656;2023-04-01T05:44:01;21.33;;;8.60;;
68256;SDS011;55069;51.568;4.656;2023-04-01T05:46:36;17.30;;;8.57;;
68256;SDS011;55069;51.568;4.656;2023-04-01T05:49:12;17.60;;;8.52;;
68256;SDS011;55069;51.568;4.656;2023-04-01T05:51:38;24.83;;;9.83;;
68256;SDS011;55069;51.568;4.656;2023-04-01T05:54:04;24.70;;;11.73;;
68256;SDS011;55069;51.568;4.656;2023-04-01T05:56:30;25.50;;;11.90;;
68256;SDS011;55069;51.568;4.656;2023-04-01T05:58:57;29.20;;;11.90;;
68256;SDS011;55069;51.568;4.656;2023-04-01T06:01:23;24.25;;;11.52;;
68256;SDS011;55069;51.568;4.656;2023-04-01T06:03:49;28.87;;;13.43;;
68256;SDS011;55069;51.568;4.656;2023-04-01T06:06:20;26.08;;;12.25;;
68256;SDS011;55069;51.568;4.656;2023-04-01T06:08:50;21.10;;;9.57;;
68256;SDS011;55069;51.568;4.656;2023-04-01T06:14:17;26.00;;;11.47;;
68256;SDS011;55069;51.568;4.656;2023-04-01T06:19:32;29.00;;;12.73;;
68256;SDS011;55069;51.568;4.656;2023-04-01T06:22:17;31.50;;;13.45;;
68256;SDS011;55069;51.568;4.656;2023-04-01T06:53:46;47.13;;;15.98;;
68256;SDS011;55069;51.568;4.656;2023-04-01T06:56:37;49.43;;;17.17;;
68256;SDS011;55069;51.568;4.656;2023-04-01T06:59:17;49.17;;;17.40;;
68256;SDS011;55069;51.568;4.656;2023-04-01T07:02:02;36.65;;;16.42;;
68256;SDS011;55069;51.568;4.656;2023-04-01T07:04:37;45.63;;;17.05;;
68256;SDS011;55069;51.568;4.656;2023-04-01T07:07:16;43.80;;;16.60;;
68256;SDS011;55069;51.568;4.656;2023-04-01T07:09:57;43.67;;;17.40;;
68256;SDS011;55069;51.568;4.656;2023-04-01T07:15:25;54.15;;;18.70;;
68256;SDS011;55069;51.568;4.656;2023-04-01T07:18:04;40.10;;;17.13;;
68256;SDS011;55069;51.568;4.656;2023-04-01T07:20:37;44.80;;;18.80;;
68256;SDS011;55069;51.568;4.656;2023-04-01T07:23:08;39.23;;;16.30;;
68256;SDS011;55069;51.568;4.656;2023-04-01T07:26:21;45.28;;;18.55;;
68256;SDS011;55069;51.568;4.656;2023-04-01T07:28:57;35.75;;;16.15;;
68256;SDS011;55069;51.568;4.656;2023-04-01T07:31:54;41.85;;;17.58;;
68256;SDS011;55069;51.568;4.656;2023-04-01T07:49:30;44.88;;;18.42;;
68256;SDS011;55069;51.568;4.656;2023-04-01T07:55:18;39.50;;;16.23;;
68256;SDS011;55069;51.568;4.656;2023-04-01T07:57:57;30.27;;;13.13;;
68256;SDS011;55069;51.568;4.656;2023-04-01T08:06:11;28.55;;;13.13;;
68256;SDS011;55069;51.568;4.656;2023-04-01T08:08:54;31.67;;;14.75;;
68256;SDS011;55069;51.568;4.656;2023-04-01T08:11:48;34.47;;;14.50;;
68256;SDS011;55069;51.568;4.656;2023-04-01T08:18:00;27.75;;;13.18;;
68256;SDS011;55069;51.568;4.656;2023-04-01T08:20:44;29.35;;;14.18;;
68256;SDS011;55069;51.568;4.656;2023-04-01T08:25:56;27.60;;;13.43;;
68256;SDS011;55069;51.568;4.656;2023-04-01T08:28:44;26.42;;;11.77;;
68256;SDS011;55069;51.568;4.656;2023-04-01T08:33:57;25.17;;;11.73;;
68256;SDS011;55069;51.568;4.656;2023-04-01T08:36:24;29.10;;;12.80;;
68256;SDS011;55069;51.568;4.656;2023-04-01T08:39:07;27.10;;;11.40;;
68256;SDS011;55069;51.568;4.656;2023-04-01T08:50:45;27.48;;;12.25;;
68256;SDS011;55069;51.568;4.656;2023-04-01T08:56:18;28.25;;;14.18;;
68256;SDS011;55069;51.568;4.656;2023-04-01T09:21:45;26.00;;;10.90;;
68256;SDS011;55069;51.568;4.656;2023-04-01T09:24:22;22.02;;;8.85;;
68256;SDS011;55069;51.568;4.656;2023-04-01T09:30:41;14.93;;;7.97;;
68256;SDS011;55069;51.568;4.656;2023-04-01T09:33:10;20.35;;;9.05;;
68256;SDS011;55069;51.568;4.656;2023-04-01T09:41:30;13.60;;;6.95;;
68256;SDS011;55069;51.568;4.656;2023-04-01T09:49:55;11.17;;;6.37;;
68256;SDS011;55069;51.568;4.656;2023-04-01T10:14:59;12.32;;;5.63;;
68256;SDS011;55069;51.568;4.656;2023-04-01T10:26:02;8.07;;;4.78;;
68256;SDS011;55069;51.568;4.656;2023-04-01T10:37:47;8.43;;;3.77;;
68256;SDS011;55069;51.568;4.656;2023-04-01T11:14:21;8.85;;;4.97;;
68256;SDS011;55069;51.568;4.656;2023-04-01T11:25:07;14.40;;;6.05;;
68256;SDS011;55069;51.568;4.656;2023-04-01T11:33:45;16.40;;;8.00;;
68256;SDS011;55069;51.568;4.656;2023-04-01T11:36:45;18.40;;;7.60;;
68256;SDS011;55069;51.568;4.656;2023-04-01T11:39:37;18.52;;;8.23;;
68256;SDS011;55069;51.568;4.656;2023-04-01T11:42:46;21.85;;;8.48;;
68256;SDS011;55069;51.568;4.656;2023-04-01T11:51:43;18.40;;;7.83;;
68256;SDS011;55069;51.568;4.656;2023-04-01T11:57:13;21.33;;;9.05;;
68256;SDS011;55069;51.568;4.656;2023-04-01T12:02:49;16.85;;;7.45;;
68256;SDS011;55069;51.568;4.656;2023-04-01T12:06:25;16.87;;;6.73;;
68256;SDS011;55069;51.568;4.656;2023-04-01T12:08:42;13.60;;;5.55;;
68256;SDS011;55069;51.568;4.656;2023-04-01T12:11:17;18.63;;;6.57;;
68256;SDS011;55069;51.568;4.656;2023-04-01T12:14:12;12.82;;;6.07;;
68256;SDS011;55069;51.568;4.656;2023-04-01T12:24:46;6.97;;;3.88;;
68256;SDS011;55069;51.568;4.656;2023-04-01T12:50:23;6.95;;;3.97;;
68256;SDS011;55069;51.568;4.656;2023-04-01T12:53:22;9.68;;;4.25;;
68256;SDS011;55069;51.568;4.656;2023-04-01T12:55:52;8.57;;;4.25;;
68256;SDS011;55069;51.568;4.656;2023-04-01T12:58:34;10.05;;;4.82;;
68256;SDS011;55069;51.568;4.656;2023-04-01T13:07:22;12.38;;;5.72;;
68256;SDS011;55069;51.568;4.656;2023-04-01T13:16:16;13.97;;;6.17;;
68256;SDS011;55069;51.568;4.656;2023-04-01T13:19:08;14.60;;;7.03;;
68256;SDS011;55069;51.568;4.656;2023-04-01T13:26:56;13.30;;;5.28;;
68256;SDS011;55069;51.568;4.656;2023-04-01T13:32:38;12.70;;;5.22;;
68256;SDS011;55069;51.568;4.656;2023-04-01T13:38:08;14.40;;;5.38;;
68256;SDS011;55069;51.568;4.656;2023-04-01T13:43:39;16.43;;;5.83;;
68256;SDS011;55069;51.568;4.656;2023-04-01T13:54:35;12.10;;;5.03;;
68256;SDS011;55069;51.568;4.656;2023-04-01T13:57:27;11.10;;;5.20;;
68256;SDS011;55069;51.568;4.656;2023-04-01T14:13:52;9.35;;;5.22;;
68256;SDS011;55069;51.568;4.656;2023-04-01T14:41:51;8.25;;;3.70;;
68256;SDS011;55069;51.568;4.656;2023-04-01T14:50:27;10.45;;;3.90;;
68256;SDS011;55069;51.568;4.656;2023-04-01T14:55:34;9.10;;;3.90;;
68256;SDS011;55069;51.568;4.656;2023-04-01T14:58:13;9.10;;;4.22;;
68256;SDS011;55069;51.568;4.656;2023-04-01T15:00:47;12.75;;;5.60;;
68256;SDS011;55069;51.568;4.656;2023-04-01T15:11:35;14.57;;;8.40;;
68256;SDS011;55069;51.568;4.656;2023-04-01T15:28:11;29.23;;;13.27;;
68256;SDS011;55069;51.568;4.656;2023-04-01T15:39:11;32.33;;;14.50;;
68256;SDS011;55069;51.568;4.656;2023-04-01T15:47:16;23.37;;;12.40;;
68256;SDS011;55069;51.568;4.656;2023-04-01T15:49:59;23.55;;;11.23;;
68256;SDS011;55069;51.568;4.656;2023-04-01T15:58:48;20.98;;;10.30;;
68256;SDS011;55069;51.568;4.656;2023-04-01T16:01:51;16.30;;;10.03;;
68256;SDS011;55069;51.568;4.656;2023-04-01T16:07:30;19.38;;;9.75;;
68256;SDS011;55069;51.568;4.656;2023-04-01T16:21:37;24.73;;;13.25;;
68256;SDS011;55069;51.568;4.656;2023-04-01T16:26:55;23.50;;;14.00;;
68256;SDS011;55069;51.568;4.656;2023-04-01T16:34:44;34.10;;;14.60;;
68256;SDS011;55069;51.568;4.656;2023-04-01T16:40:32;33.63;;;13.35;;
68256;SDS011;55069;51.568;4.656;2023-04-01T16:45:55;35.03;;;13.45;;
68256;SDS011;55069;51.568;4.656;2023-04-01T16:51:37;32.40;;;14.43;;
68256;SDS011;55069;51.568;4.656;2023-04-01T16:59:44;31.70;;;14.60;;
68256;SDS011;55069;51.568;4.656;2023-04-01T17:02:26;26.20;;;13.48;;
68256;SDS011;55069;51.568;4.656;2023-04-01T17:13:18;24.92;;;12.55;;
68256;SDS011;55069;51.568;4.656;2023-04-01T17:22:25;26.95;;;12.90;;
68256;SDS011;55069;51.568;4.656;2023-04-01T17:30:32;28.10;;;12.93;;
68256;SDS011;55069;51.568;4.656;2023-04-01T17:35:57;21.35;;;10.45;;
68256;SDS011;55069;51.568;4.656;2023-04-01T17:49:57;12.20;;;7.40;;
68256;SDS011;55069;51.568;4.656;2023-04-01T17:55:33;9.63;;;6.18;;
68256;SDS011;55069;51.568;4.656;2023-04-01T18:17:05;10.85;;;7.07;;
68256;SDS011;55069;51.568;4.656;2023-04-01T18:19:47;10.23;;;6.90;;
68256;SDS011;55069;51.568;4.656;2023-04-01T18:22:22;11.73;;;7.93;;
68256;SDS011;55069;51.568;4.656;2023-04-01T18:30:34;12.15;;;7.60;;
68256;SDS011;55069;51.568;4.656;2023-04-01T18:33:37;11.00;;;6.70;;
68256;SDS011;55069;51.568;4.656;2023-04-01T18:38:48;11.32;;;7.82;;
68256;SDS011;55069;51.568;4.656;2023-04-01T18:41:39;12.43;;;7.53;;
68256;SDS011;55069;51.568;4.656;2023-04-01T18:49:29;9.93;;;6.55;;
68256;SDS011;55069;51.568;4.656;2023-04-01T18:57:41;8.65;;;5.72;;
68256;SDS011;55069;51.568;4.656;2023-04-01T19:00:40;11.07;;;6.30;;
68256;SDS011;55069;51.568;4.656;2023-04-01T19:03:21;8.05;;;5.32;;
68256;SDS011;55069;51.568;4.656;2023-04-01T19:05:51;7.93;;;4.88;;
68256;SDS011;55069;51.568;4.656;2023-04-01T19:08:39;8.05;;;5.05;;
68256;SDS011;55069;51.568;4.656;2023-04-01T19:11:24;6.38;;;5.00;;
68256;SDS011;55069;51.568;4.656;2023-04-01T19:16:40;6.70;;;5.13;;
68256;SDS011;55069;51.568;4.656;2023-04-01T19:21:57;10.43;;;6.38;;
68256;SDS011;55069;51.568;4.656;2023-04-01T19:35:19;10.95;;;6.22;;
68256;SDS011;55069;51.568;4.656;2023-04-01T19:45:46;9.15;;;6.57;;
68256;SDS011;55069;51.568;4.656;2023-04-01T20:01:26;8.63;;;6.72;;
68256;SDS011;55069;51.568;4.656;2023-04-01T20:04:03;9.98;;;6.88;;
68256;SDS011;55069;51.568;4.656;2023-04-01T20:06:38;10.93;;;7.72;;
68256;SDS011;55069;51.568;4.656;2023-04-01T20:14:58;11.65;;;7.63;;
68256;SDS011;55069;51.568;4.656;2023-04-01T20:17:42;12.13;;;8.68;;
68256;SDS011;55069;51.568;4.656;2023-04-01T20:27:53;12.40;;;9.25;;
68256;SDS011;55069;51.568;4.656;2023-04-01T20:30:26;14.23;;;9.88;;
68256;SDS011;55069;51.568;4.656;2023-04-01T20:33:16;12.37;;;9.40;;
68256;SDS011;55069;51.568;4.656;2023-04-01T20:36:05;11.50;;;9.02;;
68256;SDS011;55069;51.568;4.656;2023-04-01T20:41:27;15.70;;;9.10;;
68256;SDS011;55069;51.568;4.656;2023-04-01T20:44:14;12.35;;;8.38;;
68256;SDS011;55069;51.568;4.656;2023-04-01T20:47:04;12.73;;;9.30;;
68256;SDS011;55069;51.568;4.656;2023-04-01T21:14:30;12.85;;;9.30;;
68256;SDS011;55069;51.568;4.656;2023-04-01T21:22:48;13.20;;;9.43;;
68256;SDS011;55069;51.568;4.656;2023-04-01T21:26:20;12.10;;;9.47;;
68256;SDS011;55069;51.568;4.656;2023-04-01T21:28:50;14.30;;;9.82;;
68256;SDS011;55069;51.568;4.656;2023-04-01T21:47:53;17.48;;;11.82;;
68256;SDS011;55069;51.568;4.656;2023-04-01T21:56:35;17.02;;;11.60;;
68256;SDS011;55069;51.568;4.656;2023-04-01T21:59:27;16.95;;;12.70;;
68256;SDS011;55069;51.568;4.656;2023-04-01T22:10:23;17.38;;;11.25;;
68256;SDS011;55069;51.568;4.656;2023-04-01T22:13:01;16.13;;;11.48;;
68256;SDS011;55069;51.568;4.656;2023-04-01T22:18:38;18.65;;;12.98;;
68256;SDS011;55069;51.568;4.656;2023-04-01T22:21:12;19.43;;;11.50;;
68256;SDS011;55069;51.568;4.656;2023-04-01T22:37:16;19.55;;;12.73;;
68256;SDS011;55069;51.568;4.656;2023-04-01T22:50:34;17.30;;;11.48;;
68256;SDS011;55069;51.568;4.656;2023-04-01T22:53:17;18.65;;;11.40;;
68256;SDS011;55069;51.568;4.656;2023-04-01T22:55:54;17.65;;;11.10;;
68256;SDS011;55069;51.568;4.656;2023-04-01T22:58:30;15.95;;;11.93;;
68256;SDS011;55069;51.568;4.656;2023-04-01T23:01:01;16.83;;;11.50;;
68256;SDS011;55069;51.568;4.656;2023-04-01T23:03:36;19.10;;;11.73;;
68256;SDS011;55069;51.568;4.656;2023-04-01T23:06:06;18.55;;;11.00;;
68256;SDS011;55069;51.568;4.656;2023-04-01T23:16:57;14.02;;;9.82;;
68256;SDS011;55069;51.568;4.656;2023-04-01T23:35:50;14.68;;;9.25;;
68256;SDS011;55069;51.568;4.656;2023-04-01T23:38:20;13.13;;;9.65;;
68256;SDS011;55069;51.568;4.656;2023-04-01T23:40:49;14.30;;;9.38;;
68256;SDS011;55069;51.568;4.656;2023-04-01T23:46:14;17.20;;;10.30;;
68256;SDS011;55069;51.568;4.656;2023-04-01T23:48:41;14.80;;;9.93;;
68256;SDS011;55069;51.568;4.656;2023-04-01T23:51:13;16.50;;;11.52;;
68256;SDS011;55069;51.568;4.656;2023-04-01T23:53:44;16.20;;;10.13;;
68256;SDS011;55069;51.568;4.656;2023-04-01T23:56:13;19.67;;;10.85;;
68256;SDS011;55069;51.568;4.656;2023-04-01T23:58:49;16.30;;;9.83;;
